sensor_id;sensor_type;location;lat;lon;timestamp;P1;durP1;ratioP1;P2;durP2;ratioP2
55292;SDS011;41157;53.560;10.098;2023-12-20T00:01:55;7.17;;;1.90;;
55292;SDS011;41157;53.560;10.098;2023-12-20T00:04:22;11.07;;;1.90;;
55292;SDS011;41157;53.560;10.098;2023-12-20T00:06:49;11.60;;;1.80;;
55292;SDS011;41157;53.560;10.098;2023-12-20T00:09:17;8.73;;;1.90;;
55292;SDS011;41157;53.560;10.098;2023-12-20T00:11:44;14.00;;;2.77;;
55292;SDS011;41157;53.560;10.098;2023-12-20T00:14:11;11.53;;;1.70;;
55292;SDS011;41157;53.560;10.098;2023-12-20T00:16:38;14.07;;;2.40;;
55292;SDS011;41157;53.560;10.098;2023-12-20T00:19:07;7.20;;;1.83;;
55292;SDS011;41157;53.560;10.098;2023-12-20T00:21:34;11.97;;;2.00;;
55292;SDS011;41157;53.560;10.098;2023-12-20T00:24:01;8.77;;;2.27;;
55292;SDS011;41157;53.560;10.098;2023-12-20T00:26:28;10.20;;;2.43;;
55292;SDS011;41157;53.560;10.098;2023-12-20T00:28:55;11.40;;;1.73;;
55292;SDS011;41157;53.560;10.098;2023-12-20T00:31:22;12.03;;;2.13;;
55292;SDS011;41157;53.560;10.098;2023-12-20T00:33:51;8.77;;;1.87;;
55292;SDS011;41157;53.560;10.098;2023-12-20T00:36:20;11.17;;;2.27;;
55292;SDS011;41157;53.560;10.098;2023-12-20T00:38:47;11.40;;;2.57;;
55292;SDS011;41157;53.560;10.098;2023-12-20T00:41:15;8.37;;;1.90;;
55292;SDS011;41157;53.560;10.098;2023-12-20T00:43:42;12.57;;;2.37;;
55292;SDS011;41157;53.560;10.098;2023-12-20T00:46:09;17.83;;;2.90;;
55292;SDS011;41157;53.560;10.098;2023-12-20T00:48:36;9.27;;;2.00;;
55292;SDS011;41157;53.560;10.098;2023-12-20T00:51:03;13.83;;;2.47;;
55292;SDS011;41157;53.560;10.098;2023-12-20T00:53:32;8.93;;;2.23;;
55292;SDS011;41157;53.560;10.098;2023-12-20T00:55:59;8.70;;;2.37;;
55292;SDS011;41157;53.560;10.098;2023-12-20T00:58:26;9.97;;;2.13;;
55292;SDS011;41157;53.560;10.098;2023-12-20T01:00:53;11.03;;;2.20;;
55292;SDS011;41157;53.560;10.098;2023-12-20T01:03:20;13.97;;;2.07;;
55292;SDS011;41157;53.560;10.098;2023-12-20T01:05:46;8.77;;;2.10;;
55292;SDS011;41157;53.560;10.098;2023-12-20T01:08:13;15.67;;;2.00;;
55292;SDS011;41157;53.560;10.098;2023-12-20T01:10:42;10.73;;;2.40;;
55292;SDS011;41157;53.560;10.098;2023-12-20T01:13:09;10.43;;;1.90;;
55292;SDS011;41157;53.560;10.098;2023-12-20T01:15:36;9.30;;;2.03;;
55292;SDS011;41157;53.560;10.098;2023-12-20T01:18:03;17.57;;;2.30;;
55292;SDS011;41157;53.560;10.098;2023-12-20T01:20:30;9.50;;;2.20;;
55292;SDS011;41157;53.560;10.098;2023-12-20T01:22:57;15.50;;;2.70;;
55292;SDS011;41157;53.560;10.098;2023-12-20T01:25:24;10.60;;;1.97;;
55292;SDS011;41157;53.560;10.098;2023-12-20T01:27:52;7.90;;;2.40;;
55292;SDS011;41157;53.560;10.098;2023-12-20T01:30:19;8.07;;;2.07;;
55292;SDS011;41157;53.560;10.098;2023-12-20T01:32:46;9.23;;;1.83;;
55292;SDS011;41157;53.560;10.098;2023-12-20T01:35:13;8.80;;;2.17;;
55292;SDS011;41157;53.560;10.098;2023-12-20T01:37:40;12.27;;;2.23;;
55292;SDS011;41157;53.560;10.098;2023-12-20T01:40:07;9.07;;;2.53;;
55292;SDS011;41157;53.560;10.098;2023-12-20T01:42:35;12.60;;;2.97;;
55292;SDS011;41157;53.560;10.098;2023-12-20T01:45:04;14.30;;;2.43;;
55292;SDS011;41157;53.560;10.098;2023-12-20T01:47:31;13.17;;;2.83;;
55292;SDS011;41157;53.560;10.098;2023-12-20T01:49:58;9.23;;;2.10;;
55292;SDS011;41157;53.560;10.098;2023-12-20T01:52:25;11.97;;;2.00;;
55292;SDS011;41157;53.560;10.098;2023-12-20T01:54:52;11.73;;;2.57;;
55292;SDS011;41157;53.560;10.098;2023-12-20T01:57:21;17.40;;;2.67;;
55292;SDS011;41157;53.560;10.098;2023-12-20T01:59:48;12.57;;;2.07;;
55292;SDS011;41157;53.560;10.098;2023-12-20T02:02:17;8.03;;;2.33;;
55292;SDS011;41157;53.560;10.098;2023-12-20T02:04:44;14.37;;;2.10;;
55292;SDS011;41157;53.560;10.098;2023-12-20T02:07:10;9.40;;;2.63;;
55292;SDS011;41157;53.560;10.098;2023-12-20T02:09:38;14.60;;;2.67;;
55292;SDS011;41157;53.560;10.098;2023-12-20T02:12:05;11.37;;;1.87;;
55292;SDS011;41157;53.560;10.098;2023-12-20T02:14:32;16.27;;;2.23;;
55292;SDS011;41157;53.560;10.098;2023-12-20T02:16:59;13.50;;;2.10;;
55292;SDS011;41157;53.560;10.098;2023-12-20T02:19:27;22.70;;;2.67;;
55292;SDS011;41157;53.560;10.098;2023-12-20T02:22:05;11.50;;;2.30;;
55292;SDS011;41157;53.560;10.098;2023-12-20T02:24:33;16.00;;;2.67;;
55292;SDS011;41157;53.560;10.098;2023-12-20T02:27:01;10.37;;;2.10;;
55292;SDS011;41157;53.560;10.098;2023-12-20T02:29:28;10.80;;;2.10;;
55292;SDS011;41157;53.560;10.098;2023-12-20T02:31:55;9.20;;;2.50;;
55292;SDS011;41157;53.560;10.098;2023-12-20T02:34:22;9.80;;;2.03;;
55292;SDS011;41157;53.560;10.098;2023-12-20T02:36:49;13.17;;;2.50;;
55292;SDS011;41157;53.560;10.098;2023-12-20T02:39:18;10.47;;;2.40;;
55292;SDS011;41157;53.560;10.098;2023-12-20T02:41:45;7.27;;;1.80;;
55292;SDS011;41157;53.560;10.098;2023-12-20T02:44:12;13.40;;;3.07;;
55292;SDS011;41157;53.560;10.098;2023-12-20T02:46:39;10.87;;;2.10;;
55292;SDS011;41157;53.560;10.098;2023-12-20T02:49:07;13.03;;;2.00;;
55292;SDS011;41157;53.560;10.098;2023-12-20T02:51:34;9.17;;;2.40;;
55292;SDS011;41157;53.560;10.098;2023-12-20T02:54:03;11.50;;;2.50;;
55292;SDS011;41157;53.560;10.098;2023-12-20T02:56:31;12.73;;;3.03;;
55292;SDS011;41157;53.560;10.098;2023-12-20T02:58:58;18.27;;;2.33;;
55292;SDS011;41157;53.560;10.098;2023-12-20T03:01:26;9.00;;;1.80;;
55292;SDS011;41157;53.560;10.098;2023-12-20T03:03:53;10.27;;;2.13;;
55292;SDS011;41157;53.560;10.098;2023-12-20T03:06:20;11.90;;;2.27;;
55292;SDS011;41157;53.560;10.098;2023-12-20T03:08:47;10.90;;;1.93;;
55292;SDS011;41157;53.560;10.098;2023-12-20T03:11:14;12.17;;;1.87;;
55292;SDS011;41157;53.560;10.098;2023-12-20T03:13:42;9.53;;;2.30;;
55292;SDS011;41157;53.560;10.098;2023-12-20T03:16:09;9.27;;;2.23;;
55292;SDS011;41157;53.560;10.098;2023-12-20T03:18:36;8.27;;;1.90;;
55292;SDS011;41157;53.560;10.098;2023-12-20T03:21:04;10.33;;;1.83;;
55292;SDS011;41157;53.560;10.098;2023-12-20T03:23:31;11.20;;;2.43;;
55292;SDS011;41157;53.560;10.098;2023-12-20T03:25:58;6.83;;;2.30;;
55292;SDS011;41157;53.560;10.098;2023-12-20T03:28:26;9.43;;;2.00;;
55292;SDS011;41157;53.560;10.098;2023-12-20T03:30:54;10.43;;;1.97;;
55292;SDS011;41157;53.560;10.098;2023-12-20T03:33:21;12.30;;;2.20;;
55292;SDS011;41157;53.560;10.098;2023-12-20T03:35:48;8.17;;;2.20;;
55292;SDS011;41157;53.560;10.098;2023-12-20T03:38:15;12.17;;;2.07;;
55292;SDS011;41157;53.560;10.098;2023-12-20T03:40:42;10.70;;;1.93;;
55292;SDS011;41157;53.560;10.098;2023-12-20T03:43:09;9.60;;;2.33;;
55292;SDS011;41157;53.560;10.098;2023-12-20T03:45:36;13.03;;;2.03;;
55292;SDS011;41157;53.560;10.098;2023-12-20T03:48:05;7.47;;;1.87;;
55292;SDS011;41157;53.560;10.098;2023-12-20T03:50:32;13.90;;;2.40;;
55292;SDS011;41157;53.560;10.098;2023-12-20T03:52:59;10.47;;;2.17;;
55292;SDS011;41157;53.560;10.098;2023-12-20T03:55:26;7.47;;;1.83;;
55292;SDS011;41157;53.560;10.098;2023-12-20T03:57:53;7.17;;;2.00;;
55292;SDS011;41157;53.560;10.098;2023-12-20T04:00:20;5.87;;;1.80;;
55292;SDS011;41157;53.560;10.098;2023-12-20T04:02:47;8.23;;;1.97;;
55292;SDS011;41157;53.560;10.098;2023-12-20T04:05:15;11.97;;;2.47;;
55292;SDS011;41157;53.560;10.098;2023-12-20T04:07:42;7.77;;;1.90;;
55292;SDS011;41157;53.560;10.098;2023-12-20T04:10:09;13.87;;;2.40;;
55292;SDS011;41157;53.560;10.098;2023-12-20T04:12:36;7.10;;;1.63;;
55292;SDS011;41157;53.560;10.098;2023-12-20T04:15:04;11.53;;;2.10;;
55292;SDS011;41157;53.560;10.098;2023-12-20T04:17:34;10.33;;;1.87;;
55292;SDS011;41157;53.560;10.098;2023-12-20T04:20:01;9.00;;;2.10;;
55292;SDS011;41157;53.560;10.098;2023-12-20T04:22:29;15.23;;;2.20;;
55292;SDS011;41157;53.560;10.098;2023-12-20T04:24:56;17.37;;;2.13;;
55292;SDS011;41157;53.560;10.098;2023-12-20T04:27:23;6.17;;;2.13;;
55292;SDS011;41157;53.560;10.098;2023-12-20T04:29:50;11.03;;;2.00;;
55292;SDS011;41157;53.560;10.098;2023-12-20T04:32:17;10.03;;;2.40;;
55292;SDS011;41157;53.560;10.098;2023-12-20T04:34:44;5.43;;;1.90;;
55292;SDS011;41157;53.560;10.098;2023-12-20T04:37:11;6.87;;;1.83;;
55292;SDS011;41157;53.560;10.098;2023-12-20T04:39:39;6.03;;;1.53;;
55292;SDS011;41157;53.560;10.098;2023-12-20T04:42:07;10.63;;;2.20;;
55292;SDS011;41157;53.560;10.098;2023-12-20T04:44:35;5.50;;;1.73;;
55292;SDS011;41157;53.560;10.098;2023-12-20T04:47:02;6.07;;;1.60;;
55292;SDS011;41157;53.560;10.098;2023-12-20T04:49:29;15.63;;;2.40;;
55292;SDS011;41157;53.560;10.098;2023-12-20T04:51:56;9.97;;;2.00;;
55292;SDS011;41157;53.560;10.098;2023-12-20T04:54:23;12.37;;;2.10;;
55292;SDS011;41157;53.560;10.098;2023-12-20T04:56:51;9.30;;;2.13;;
55292;SDS011;41157;53.560;10.098;2023-12-20T04:59:18;9.10;;;2.17;;
55292;SDS011;41157;53.560;10.098;2023-12-20T05:01:47;10.33;;;2.67;;
55292;SDS011;41157;53.560;10.098;2023-12-20T05:04:22;13.03;;;2.47;;
55292;SDS011;41157;53.560;10.098;2023-12-20T05:06:49;6.77;;;2.27;;
55292;SDS011;41157;53.560;10.098;2023-12-20T05:09:16;8.57;;;2.27;;
55292;SDS011;41157;53.560;10.098;2023-12-20T05:11:43;5.57;;;2.00;;
55292;SDS011;41157;53.560;10.098;2023-12-20T05:14:11;16.30;;;2.97;;
55292;SDS011;41157;53.560;10.098;2023-12-20T05:16:38;13.57;;;2.00;;
55292;SDS011;41157;53.560;10.098;2023-12-20T05:19:05;15.37;;;3.27;;
55292;SDS011;41157;53.560;10.098;2023-12-20T05:21:32;9.13;;;2.37;;
55292;SDS011;41157;53.560;10.098;2023-12-20T05:23:58;11.53;;;2.50;;
55292;SDS011;41157;53.560;10.098;2023-12-20T05:26:26;13.10;;;2.80;;
55292;SDS011;41157;53.560;10.098;2023-12-20T05:28:54;7.53;;;2.20;;
55292;SDS011;41157;53.560;10.098;2023-12-20T05:31:22;16.57;;;2.67;;
55292;SDS011;41157;53.560;10.098;2023-12-20T05:33:49;9.50;;;2.47;;
55292;SDS011;41157;53.560;10.098;2023-12-20T05:36:16;5.93;;;1.97;;
55292;SDS011;41157;53.560;10.098;2023-12-20T05:38:43;12.43;;;2.47;;
55292;SDS011;41157;53.560;10.098;2023-12-20T05:41:10;8.73;;;2.60;;
55292;SDS011;41157;53.560;10.098;2023-12-20T05:43:38;11.93;;;2.83;;
55292;SDS011;41157;53.560;10.098;2023-12-20T05:46:19;11.33;;;3.00;;
55292;SDS011;41157;53.560;10.098;2023-12-20T05:48:48;9.80;;;2.90;;
55292;SDS011;41157;53.560;10.098;2023-12-20T05:51:16;13.00;;;2.50;;
55292;SDS011;41157;53.560;10.098;2023-12-20T05:53:43;16.77;;;2.90;;
55292;SDS011;41157;53.560;10.098;2023-12-20T05:56:10;13.83;;;2.70;;
55292;SDS011;41157;53.560;10.098;2023-12-20T05:58:38;11.80;;;3.17;;
55292;SDS011;41157;53.560;10.098;2023-12-20T06:01:05;9.50;;;2.50;;
55292;SDS011;41157;53.560;10.098;2023-12-20T06:03:33;4.33;;;1.83;;
55292;SDS011;41157;53.560;10.098;2023-12-20T06:06:05;10.23;;;2.20;;
55292;SDS011;41157;53.560;10.098;2023-12-20T06:08:32;15.20;;;2.37;;
55292;SDS011;41157;53.560;10.098;2023-12-20T06:10:59;8.07;;;1.93;;
55292;SDS011;41157;53.560;10.098;2023-12-20T06:13:26;12.20;;;2.70;;
55292;SDS011;41157;53.560;10.098;2023-12-20T06:15:53;12.53;;;2.33;;
55292;SDS011;41157;53.560;10.098;2023-12-20T06:18:21;7.63;;;2.17;;
55292;SDS011;41157;53.560;10.098;2023-12-20T06:20:49;7.43;;;2.60;;
55292;SDS011;41157;53.560;10.098;2023-12-20T06:23:17;13.17;;;2.70;;
55292;SDS011;41157;53.560;10.098;2023-12-20T06:25:44;9.23;;;2.83;;
55292;SDS011;41157;53.560;10.098;2023-12-20T06:28:11;11.33;;;2.50;;
55292;SDS011;41157;53.560;10.098;2023-12-20T06:30:39;19.67;;;3.03;;
55292;SDS011;41157;53.560;10.098;2023-12-20T06:33:06;11.50;;;2.00;;
55292;SDS011;41157;53.560;10.098;2023-12-20T06:35:34;7.37;;;2.47;;
55292;SDS011;41157;53.560;10.098;2023-12-20T06:38:02;5.80;;;2.23;;
55292;SDS011;41157;53.560;10.098;2023-12-20T06:40:30;13.33;;;2.80;;
55292;SDS011;41157;53.560;10.098;2023-12-20T06:42:57;10.37;;;2.70;;
55292;SDS011;41157;53.560;10.098;2023-12-20T06:45:25;15.03;;;2.23;;
55292;SDS011;41157;53.560;10.098;2023-12-20T06:47:52;18.53;;;2.90;;
55292;SDS011;41157;53.560;10.098;2023-12-20T06:50:19;9.57;;;2.23;;
55292;SDS011;41157;53.560;10.098;2023-12-20T06:52:46;11.93;;;2.57;;
55292;SDS011;41157;53.560;10.098;2023-12-20T06:55:14;14.23;;;2.57;;
55292;SDS011;41157;53.560;10.098;2023-12-20T06:57:43;7.87;;;2.30;;
55292;SDS011;41157;53.560;10.098;2023-12-20T07:00:11;11.37;;;2.20;;
55292;SDS011;41157;53.560;10.098;2023-12-20T07:02:38;9.10;;;2.80;;
55292;SDS011;41157;53.560;10.098;2023-12-20T07:05:05;15.50;;;2.87;;
55292;SDS011;41157;53.560;10.098;2023-12-20T07:07:33;5.70;;;2.30;;
55292;SDS011;41157;53.560;10.098;2023-12-20T07:10:00;8.67;;;1.97;;
55292;SDS011;41157;53.560;10.098;2023-12-20T07:12:27;11.97;;;2.63;;
55292;SDS011;41157;53.560;10.098;2023-12-20T07:14:56;10.70;;;2.70;;
55292;SDS011;41157;53.560;10.098;2023-12-20T07:17:23;13.67;;;2.20;;
55292;SDS011;41157;53.560;10.098;2023-12-20T07:19:50;8.97;;;2.13;;
55292;SDS011;41157;53.560;10.098;2023-12-20T07:22:17;9.83;;;3.10;;
55292;SDS011;41157;53.560;10.098;2023-12-20T07:24:44;11.87;;;2.40;;
55292;SDS011;41157;53.560;10.098;2023-12-20T07:27:13;15.97;;;2.73;;
55292;SDS011;41157;53.560;10.098;2023-12-20T07:29:40;12.70;;;2.10;;
55292;SDS011;41157;53.560;10.098;2023-12-20T07:32:09;8.43;;;2.67;;
55292;SDS011;41157;53.560;10.098;2023-12-20T07:34:36;15.03;;;3.47;;
55292;SDS011;41157;53.560;10.098;2023-12-20T07:37:03;12.00;;;2.73;;
55292;SDS011;41157;53.560;10.098;2023-12-20T07:39:30;12.33;;;2.70;;
55292;SDS011;41157;53.560;10.098;2023-12-20T07:41:58;14.50;;;3.13;;
55292;SDS011;41157;53.560;10.098;2023-12-20T07:44:25;13.70;;;3.03;;
55292;SDS011;41157;53.560;10.098;2023-12-20T07:46:52;10.57;;;2.27;;
55292;SDS011;41157;53.560;10.098;2023-12-20T07:49:21;18.53;;;3.07;;
55292;SDS011;41157;53.560;10.098;2023-12-20T07:51:48;15.57;;;3.03;;
55292;SDS011;41157;53.560;10.098;2023-12-20T07:54:16;12.97;;;3.00;;
55292;SDS011;41157;53.560;10.098;2023-12-20T07:56:43;7.03;;;2.17;;
55292;SDS011;41157;53.560;10.098;2023-12-20T07:59:10;9.77;;;2.83;;
55292;SDS011;41157;53.560;10.098;2023-12-20T08:01:37;15.73;;;2.87;;
55292;SDS011;41157;53.560;10.098;2023-12-20T08:04:05;13.43;;;2.80;;
55292;SDS011;41157;53.560;10.098;2023-12-20T08:06:33;21.53;;;3.27;;
55292;SDS011;41157;53.560;10.098;2023-12-20T08:09:01;15.30;;;3.13;;
55292;SDS011;41157;53.560;10.098;2023-12-20T08:11:28;8.27;;;2.13;;
55292;SDS011;41157;53.560;10.098;2023-12-20T08:13:55;13.30;;;2.40;;
55292;SDS011;41157;53.560;10.098;2023-12-20T08:16:23;14.70;;;2.97;;
55292;SDS011;41157;53.560;10.098;2023-12-20T08:18:50;16.77;;;3.23;;
55292;SDS011;41157;53.560;10.098;2023-12-20T08:21:17;17.50;;;3.73;;
55292;SDS011;41157;53.560;10.098;2023-12-20T08:23:48;10.73;;;3.07;;
55292;SDS011;41157;53.560;10.098;2023-12-20T08:26:18;13.37;;;3.03;;
55292;SDS011;41157;53.560;10.098;2023-12-20T08:28:47;13.17;;;3.47;;
55292;SDS011;41157;53.560;10.098;2023-12-20T08:31:14;9.53;;;2.90;;
55292;SDS011;41157;53.560;10.098;2023-12-20T08:33:42;15.37;;;2.57;;
55292;SDS011;41157;53.560;10.098;2023-12-20T08:36:10;13.97;;;2.70;;
55292;SDS011;41157;53.560;10.098;2023-12-20T08:38:37;13.43;;;2.90;;
55292;SDS011;41157;53.560;10.098;2023-12-20T08:41:06;11.97;;;2.40;;
55292;SDS011;41157;53.560;10.098;2023-12-20T08:43:34;12.83;;;2.33;;
55292;SDS011;41157;53.560;10.098;2023-12-20T08:46:01;14.70;;;2.97;;
55292;SDS011;41157;53.560;10.098;2023-12-20T08:48:28;10.83;;;2.73;;
55292;SDS011;41157;53.560;10.098;2023-12-20T08:50:55;13.77;;;2.93;;
55292;SDS011;41157;53.560;10.098;2023-12-20T08:53:22;12.13;;;2.57;;
55292;SDS011;41157;53.560;10.098;2023-12-20T08:55:50;10.63;;;2.77;;
55292;SDS011;41157;53.560;10.098;2023-12-20T08:58:18;8.83;;;2.50;;
55292;SDS011;41157;53.560;10.098;2023-12-20T09:00:45;13.90;;;2.67;;
55292;SDS011;41157;53.560;10.098;2023-12-20T09:03:12;7.27;;;2.77;;
55292;SDS011;41157;53.560;10.098;2023-12-20T09:05:39;10.27;;;3.03;;
55292;SDS011;41157;53.560;10.098;2023-12-20T09:08:06;10.90;;;2.70;;
55292;SDS011;41157;53.560;10.098;2023-12-20T09:10:35;10.43;;;2.80;;
55292;SDS011;41157;53.560;10.098;2023-12-20T09:13:02;7.40;;;2.30;;
55292;SDS011;41157;53.560;10.098;2023-12-20T09:15:30;8.97;;;2.23;;
55292;SDS011;41157;53.560;10.098;2023-12-20T09:17:59;6.93;;;2.87;;
55292;SDS011;41157;53.560;10.098;2023-12-20T09:20:26;8.70;;;2.30;;
55292;SDS011;41157;53.560;10.098;2023-12-20T09:22:53;11.07;;;2.07;;
55292;SDS011;41157;53.560;10.098;2023-12-20T09:25:20;7.23;;;1.97;;
55292;SDS011;41157;53.560;10.098;2023-12-20T09:27:48;8.17;;;2.00;;
55292;SDS011;41157;53.560;10.098;2023-12-20T09:30:15;7.23;;;1.90;;
55292;SDS011;41157;53.560;10.098;2023-12-20T09:32:43;6.80;;;1.90;;
55292;SDS011;41157;53.560;10.098;2023-12-20T09:35:10;5.27;;;1.30;;
55292;SDS011;41157;53.560;10.098;2023-12-20T09:37:37;3.73;;;1.60;;
55292;SDS011;41157;53.560;10.098;2023-12-20T09:40:06;7.90;;;1.10;;
55292;SDS011;41157;53.560;10.098;2023-12-20T09:42:36;2.87;;;1.43;;
55292;SDS011;41157;53.560;10.098;2023-12-20T09:45:05;7.63;;;1.30;;
55292;SDS011;41157;53.560;10.098;2023-12-20T09:47:34;2.73;;;1.47;;
55292;SDS011;41157;53.560;10.098;2023-12-20T09:50:03;2.07;;;1.10;;
55292;SDS011;41157;53.560;10.098;2023-12-20T09:52:30;1.03;;;0.80;;
55292;SDS011;41157;53.560;10.098;2023-12-20T09:54:57;1.60;;;0.80;;
55292;SDS011;41157;53.560;10.098;2023-12-20T09:57:26;6.67;;;2.63;;
55292;SDS011;41157;53.560;10.098;2023-12-20T09:59:53;9.73;;;3.23;;
55292;SDS011;41157;53.560;10.098;2023-12-20T10:02:21;5.73;;;1.07;;
55292;SDS011;41157;53.560;10.098;2023-12-20T10:04:52;2.60;;;1.20;;
55292;SDS011;41157;53.560;10.098;2023-12-20T10:07:20;5.40;;;1.20;;
55292;SDS011;41157;53.560;10.098;2023-12-20T10:09:48;2.83;;;1.10;;
55292;SDS011;41157;53.560;10.098;2023-12-20T10:12:17;2.47;;;0.80;;
55292;SDS011;41157;53.560;10.098;2023-12-20T10:14:44;0.87;;;0.73;;
55292;SDS011;41157;53.560;10.098;2023-12-20T10:17:11;4.57;;;1.50;;
55292;SDS011;41157;53.560;10.098;2023-12-20T10:19:38;7.83;;;1.33;;
55292;SDS011;41157;53.560;10.098;2023-12-20T10:22:06;0.83;;;0.77;;
55292;SDS011;41157;53.560;10.098;2023-12-20T10:24:34;1.27;;;0.60;;
55292;SDS011;41157;53.560;10.098;2023-12-20T10:27:02;4.23;;;1.03;;
55292;SDS011;41157;53.560;10.098;2023-12-20T10:29:31;2.33;;;0.87;;
55292;SDS011;41157;53.560;10.098;2023-12-20T10:31:59;5.90;;;1.00;;
55292;SDS011;41157;53.560;10.098;2023-12-20T10:34:26;1.43;;;0.90;;
55292;SDS011;41157;53.560;10.098;2023-12-20T10:36:53;0.63;;;0.50;;
55292;SDS011;41157;53.560;10.098;2023-12-20T10:39:20;1.10;;;0.77;;
55292;SDS011;41157;53.560;10.098;2023-12-20T10:41:48;2.20;;;0.70;;
55292;SDS011;41157;53.560;10.098;2023-12-20T10:44:15;2.67;;;0.90;;
55292;SDS011;41157;53.560;10.098;2023-12-20T10:46:43;4.33;;;0.90;;
55292;SDS011;41157;53.560;10.098;2023-12-20T10:49:16;5.07;;;1.30;;
55292;SDS011;41157;53.560;10.098;2023-12-20T10:51:44;1.43;;;1.00;;
55292;SDS011;41157;53.560;10.098;2023-12-20T10:54:11;2.27;;;1.00;;
55292;SDS011;41157;53.560;10.098;2023-12-20T10:56:38;2.67;;;1.00;;
55292;SDS011;41157;53.560;10.098;2023-12-20T10:59:07;3.80;;;1.13;;
55292;SDS011;41157;53.560;10.098;2023-12-20T11:01:36;3.00;;;1.20;;
55292;SDS011;41157;53.560;10.098;2023-12-20T11:04:05;6.83;;;1.70;;
55292;SDS011;41157;53.560;10.098;2023-12-20T11:06:35;5.03;;;1.23;;
55292;SDS011;41157;53.560;10.098;2023-12-20T11:09:06;2.80;;;1.33;;
55292;SDS011;41157;53.560;10.098;2023-12-20T11:11:40;6.27;;;1.30;;
55292;SDS011;41157;53.560;10.098;2023-12-20T11:14:11;3.30;;;1.17;;
55292;SDS011;41157;53.560;10.098;2023-12-20T11:16:42;7.33;;;1.27;;
55292;SDS011;41157;53.560;10.098;2023-12-20T11:19:09;6.10;;;1.37;;
55292;SDS011;41157;53.560;10.098;2023-12-20T11:21:39;4.17;;;1.17;;
55292;SDS011;41157;53.560;10.098;2023-12-20T11:24:06;6.30;;;0.93;;
55292;SDS011;41157;53.560;10.098;2023-12-20T11:26:33;5.23;;;1.47;;
55292;SDS011;41157;53.560;10.098;2023-12-20T11:31:48;2.47;;;1.10;;
55292;SDS011;41157;53.560;10.098;2023-12-20T11:34:15;1.67;;;0.83;;
55292;SDS011;41157;53.560;10.098;2023-12-20T11:36:44;5.57;;;1.40;;
55292;SDS011;41157;53.560;10.098;2023-12-20T11:39:11;6.73;;;1.33;;
55292;SDS011;41157;53.560;10.098;2023-12-20T11:41:38;3.87;;;1.37;;
55292;SDS011;41157;53.560;10.098;2023-12-20T11:44:09;5.83;;;1.20;;
55292;SDS011;41157;53.560;10.098;2023-12-20T11:46:36;5.00;;;1.40;;
55292;SDS011;41157;53.560;10.098;2023-12-20T11:49:05;1.67;;;0.93;;
55292;SDS011;41157;53.560;10.098;2023-12-20T11:51:32;4.80;;;1.20;;
55292;SDS011;41157;53.560;10.098;2023-12-20T11:53:59;8.53;;;1.23;;
55292;SDS011;41157;53.560;10.098;2023-12-20T11:56:27;5.67;;;1.50;;
55292;SDS011;41157;53.560;10.098;2023-12-20T11:58:55;12.00;;;2.20;;
55292;SDS011;41157;53.560;10.098;2023-12-20T12:01:22;4.03;;;1.47;;
55292;SDS011;41157;53.560;10.098;2023-12-20T12:04:01;12.23;;;1.73;;
55292;SDS011;41157;53.560;10.098;2023-12-20T12:06:30;8.03;;;2.10;;
55292;SDS011;41157;53.560;10.098;2023-12-20T12:08:57;9.40;;;1.80;;
55292;SDS011;41157;53.560;10.098;2023-12-20T12:11:24;9.17;;;1.87;;
55292;SDS011;41157;53.560;10.098;2023-12-20T12:13:55;6.70;;;1.37;;
55292;SDS011;41157;53.560;10.098;2023-12-20T12:16:22;8.33;;;1.70;;
55292;SDS011;41157;53.560;10.098;2023-12-20T12:18:55;9.73;;;1.80;;
55292;SDS011;41157;53.560;10.098;2023-12-20T12:21:22;8.87;;;1.87;;
55292;SDS011;41157;53.560;10.098;2023-12-20T12:23:51;6.23;;;1.97;;
55292;SDS011;41157;53.560;10.098;2023-12-20T12:26:18;11.07;;;1.93;;
55292;SDS011;41157;53.560;10.098;2023-12-20T12:28:46;7.20;;;1.80;;
55292;SDS011;41157;53.560;10.098;2023-12-20T12:31:13;14.20;;;2.13;;
55292;SDS011;41157;53.560;10.098;2023-12-20T12:33:41;9.87;;;2.10;;
55292;SDS011;41157;53.560;10.098;2023-12-20T12:36:09;8.17;;;2.07;;
55292;SDS011;41157;53.560;10.098;2023-12-20T12:38:37;9.50;;;2.50;;
55292;SDS011;41157;53.560;10.098;2023-12-20T12:41:06;8.87;;;2.23;;
55292;SDS011;41157;53.560;10.098;2023-12-20T12:43:35;8.43;;;1.87;;
55292;SDS011;41157;53.560;10.098;2023-12-20T12:46:02;5.27;;;1.93;;
55292;SDS011;41157;53.560;10.098;2023-12-20T12:48:29;10.03;;;2.13;;
55292;SDS011;41157;53.560;10.098;2023-12-20T12:50:56;9.77;;;2.50;;
55292;SDS011;41157;53.560;10.098;2023-12-20T12:53:24;12.40;;;2.70;;
55292;SDS011;41157;53.560;10.098;2023-12-20T12:55:52;12.80;;;2.17;;
55292;SDS011;41157;53.560;10.098;2023-12-20T12:58:22;8.80;;;2.13;;
55292;SDS011;41157;53.560;10.098;2023-12-20T13:00:50;11.23;;;2.17;;
55292;SDS011;41157;53.560;10.098;2023-12-20T13:03:17;12.67;;;2.20;;
55292;SDS011;41157;53.560;10.098;2023-12-20T13:05:44;11.10;;;2.23;;
55292;SDS011;41157;53.560;10.098;2023-12-20T13:08:12;12.87;;;2.27;;
55292;SDS011;41157;53.560;10.098;2023-12-20T13:10:40;10.37;;;2.00;;
55292;SDS011;41157;53.560;10.098;2023-12-20T13:13:07;15.37;;;2.60;;
55292;SDS011;41157;53.560;10.098;2023-12-20T13:15:36;8.20;;;2.43;;
55292;SDS011;41157;53.560;10.098;2023-12-20T13:18:03;11.40;;;2.13;;
55292;SDS011;41157;53.560;10.098;2023-12-20T13:20:31;8.47;;;2.17;;
55292;SDS011;41157;53.560;10.098;2023-12-20T13:22:58;7.90;;;2.20;;
55292;SDS011;41157;53.560;10.098;2023-12-20T13:25:26;9.77;;;2.23;;
55292;SDS011;41157;53.560;10.098;2023-12-20T13:27:53;15.20;;;2.63;;
55292;SDS011;41157;53.560;10.098;2023-12-20T13:30:21;10.63;;;2.10;;
55292;SDS011;41157;53.560;10.098;2023-12-20T13:32:49;13.33;;;2.60;;
55292;SDS011;41157;53.560;10.098;2023-12-20T13:35:17;20.00;;;2.83;;
55292;SDS011;41157;53.560;10.098;2023-12-20T13:37:45;11.87;;;2.73;;
55292;SDS011;41157;53.560;10.098;2023-12-20T13:40:13;9.30;;;2.57;;
55292;SDS011;41157;53.560;10.098;2023-12-20T13:42:46;7.97;;;2.40;;
55292;SDS011;41157;53.560;10.098;2023-12-20T13:45:14;13.33;;;2.57;;
55292;SDS011;41157;53.560;10.098;2023-12-20T13:47:41;13.10;;;3.03;;
55292;SDS011;41157;53.560;10.098;2023-12-20T13:50:09;13.93;;;2.40;;
55292;SDS011;41157;53.560;10.098;2023-12-20T13:52:38;16.43;;;2.73;;
55292;SDS011;41157;53.560;10.098;2023-12-20T13:55:07;8.63;;;2.23;;
55292;SDS011;41157;53.560;10.098;2023-12-20T13:57:34;13.50;;;2.73;;
55292;SDS011;41157;53.560;10.098;2023-12-20T14:00:03;11.87;;;3.47;;
55292;SDS011;41157;53.560;10.098;2023-12-20T14:02:31;17.40;;;3.00;;
55292;SDS011;41157;53.560;10.098;2023-12-20T14:04:59;17.87;;;3.00;;
55292;SDS011;41157;53.560;10.098;2023-12-20T14:07:28;23.83;;;3.53;;
55292;SDS011;41157;53.560;10.098;2023-12-20T14:09:55;10.10;;;3.13;;
55292;SDS011;41157;53.560;10.098;2023-12-20T14:12:24;15.73;;;3.43;;
55292;SDS011;41157;53.560;10.098;2023-12-20T14:14:51;24.50;;;3.53;;
55292;SDS011;41157;53.560;10.098;2023-12-20T14:17:21;18.37;;;4.43;;
55292;SDS011;41157;53.560;10.098;2023-12-20T14:19:48;29.17;;;7.73;;
55292;SDS011;41157;53.560;10.098;2023-12-20T14:22:16;13.63;;;3.30;;
55292;SDS011;41157;53.560;10.098;2023-12-20T14:24:45;10.37;;;3.00;;
55292;SDS011;41157;53.560;10.098;2023-12-20T14:27:12;13.40;;;2.97;;
55292;SDS011;41157;53.560;10.098;2023-12-20T14:29:39;16.03;;;3.37;;
55292;SDS011;41157;53.560;10.098;2023-12-20T14:32:07;14.57;;;3.40;;
55292;SDS011;41157;53.560;10.098;2023-12-20T14:34:34;11.80;;;3.10;;